Time;durP1;ratioP1;P1;durP2;ratioP2;P2;SDS_P1;SDS_P2;PMS_P1;PMS_P2;Temp;Humidity;BMP_temperature;BMP_pressure;BME280_temperature;BME280_humidity;BME280_pressure;Samples;Min_cycle;Max_cycle;Signal;HPM_P1;HPM_P2
2023/09/10 00:00:23;;;;;;;11.20;2.70;;;17.90;99.90;;;;;;5284129;23;20572;-88
2023/09/10 00:02:50;;;;;;;4.20;4.00;;;17.80;99.90;;;;;;5795335;23;20505;-89
2023/09/10 00:05:18;;;;;;;2.90;2.70;;;17.60;99.90;;;;;;5426831;23;20543;-87
2023/09/10 00:07:45;;;;;;;2.53;2.43;;;17.80;99.90;;;;;;4997787;28;20496;-87
2023/09/10 00:10:12;;;;;;;2.30;1.63;;;17.70;99.90;;;;;;5269610;23;20489;-87
2023/09/10 00:12:40;;;;;;;4.27;3.93;;;17.70;99.90;;;;;;5267104;23;20522;-88
2023/09/10 00:15:07;;;;;;;2.53;2.43;;;17.70;99.90;;;;;;5062653;23;20567;-87
2023/09/10 00:17:34;;;;;;;2.17;2.07;;;17.50;99.90;;;;;;4991675;28;20540;-87
2023/09/10 00:22:42;;;;;;;2.57;2.47;;;17.50;99.90;;;;;;5961157;23;20498;-87
2023/09/10 00:25:10;;;;;;;3.37;3.07;;;17.40;99.90;;;;;;5652134;23;20468;-88
2023/09/10 00:27:38;;;;;;;2.00;1.90;;;17.40;99.90;;;;;;5681539;23;20755;-88
2023/09/10 00:35:23;;;;;;;3.17;2.97;;;17.30;99.90;;;;;;5253556;23;20447;-86
2023/09/10 00:40:35;;;;;;;2.73;2.60;;;17.20;99.90;;;;;;5145994;23;20451;-88
2023/09/10 00:43:03;;;;;;;3.13;2.93;;;17.10;99.90;;;;;;5027134;23;20740;-88
2023/09/10 00:50:55;;;;;;;2.47;2.37;;;17.00;99.90;;;;;;5840348;23;20575;-87
2023/09/10 00:53:24;;;;;;;2.23;2.13;;;16.90;99.90;;;;;;4983375;28;20484;-85
2023/09/10 00:55:52;;;;;;;2.40;2.30;;;16.90;99.90;;;;;;5453677;23;20563;-90
2023/09/10 01:00:54;;;;;;;2.37;2.27;;;16.80;99.90;;;;;;5840341;23;20432;-88
2023/09/10 01:19:51;;;;;;;3.60;3.23;;;16.50;99.90;;;;;;5665703;23;20535;-89
2023/09/10 01:22:32;;;;;;;3.27;3.03;;;16.40;99.90;;;;;;5168267;23;20529;-87
2023/09/10 01:25:00;;;;;;;3.73;3.53;;;16.40;99.90;;;;;;5026164;28;20432;-87
2023/09/10 01:27:28;;;;;;;3.70;3.50;;;16.50;99.90;;;;;;5458760;23;20456;-86
2023/09/10 01:29:55;;;;;;;5.27;4.93;;;16.40;99.90;;;;;;5125787;23;20516;-86
2023/09/10 01:35:09;;;;;;;1.53;1.47;;;16.30;99.90;;;;;;5450236;23;20605;-85
2023/09/10 01:40:20;;;;;;;4.30;4.03;;;16.20;99.90;;;;;;5684617;23;20614;-87
2023/09/10 01:42:51;;;;;;;4.20;3.90;;;16.20;99.90;;;;;;4963333;28;20504;-89
2023/09/10 01:45:18;;;;;;;2.07;1.90;;;16.30;99.90;;;;;;5236653;23;20579;-87
2023/09/10 01:47:47;;;;;;;4.70;4.30;;;16.30;99.90;;;;;;4967553;28;20473;-84
2023/09/10 01:50:15;;;;;;;2.57;2.40;;;16.30;99.90;;;;;;5015243;23;20508;-86
2023/09/10 01:52:42;;;;;;;4.57;4.27;;;16.30;99.90;;;;;;4988705;28;20729;-87
2023/09/10 01:55:10;;;;;;;2.90;2.73;;;16.30;99.90;;;;;;5121590;23;20580;-88
2023/09/10 02:00:19;;;;;;;5.10;3.77;;;16.10;99.90;;;;;;5333208;23;20500;-88
2023/09/10 02:02:46;;;;;;;2.43;2.33;;;16.00;99.90;;;;;;5307422;23;20561;-86
2023/09/10 02:05:14;;;;;;;2.73;2.57;;;16.10;99.90;;;;;;5303127;23;20485;-91
2023/09/10 02:15:52;;;;;;;1.83;1.73;;;16.00;99.90;;;;;;5482143;23;20508;-88
2023/09/10 02:18:23;;;;;;;3.73;2.10;;;16.30;99.90;;;;;;5961422;23;20507;-88
2023/09/10 02:28:53;;;;;;;2.03;1.93;;;16.10;99.90;;;;;;5499789;23;20490;-88
2023/09/10 02:31:22;;;;;;;3.50;3.30;;;16.00;99.90;;;;;;4988841;28;20475;-87
2023/09/10 02:33:49;;;;;;;13.90;4.40;;;16.10;99.90;;;;;;5447210;23;21094;-85
2023/09/10 02:36:16;;;;;;;3.07;2.93;;;16.10;99.90;;;;;;5618998;23;21836;-89
2023/09/10 02:38:43;;;;;;;8.60;8.00;;;16.10;99.90;;;;;;5386311;23;20616;-86
2023/09/10 02:41:10;;;;;;;2.27;2.13;;;16.10;99.90;;;;;;5207557;23;20518;-85
2023/09/10 02:46:13;;;;;;;3.13;2.93;;;16.10;99.90;;;;;;5439402;23;20550;-89
2023/09/10 02:48:40;;;;;;;3.10;2.93;;;16.00;99.90;;;;;;5139686;23;20511;-85
2023/09/10 02:51:07;;;;;;;2.20;2.10;;;16.00;99.90;;;;;;5666980;23;20552;-90
2023/09/10 02:53:34;;;;;;;2.50;2.30;;;16.00;99.90;;;;;;5544179;23;20571;-86
2023/09/10 02:56:02;;;;;;;2.67;2.57;;;16.00;99.90;;;;;;4982618;28;20436;-89
2023/09/10 02:58:30;;;;;;;3.70;3.50;;;16.00;99.90;;;;;;4971663;28;20452;-85
2023/09/10 03:01:03;;;;;;;3.40;3.20;;;16.00;99.90;;;;;;4983616;28;20501;-89
2023/09/10 03:03:34;;;;;;;4.43;4.10;;;16.00;99.90;;;;;;4991103;28;20483;-87
2023/09/10 03:06:01;;;;;;;3.30;3.10;;;16.00;99.90;;;;;;5000325;28;20447;-83
2023/09/10 03:08:35;;;;;;;3.43;3.23;;;15.90;99.90;;;;;;4995336;28;20552;-86
2023/09/10 03:11:04;;;;;;;3.37;3.17;;;16.00;99.90;;;;;;4992863;28;20465;-85
2023/09/10 03:13:31;;;;;;;1.57;1.47;;;15.90;99.90;;;;;;5114455;23;20586;-85
2023/09/10 03:15:58;;;;;;;3.53;3.17;;;15.90;99.90;;;;;;5099227;23;20492;-83
2023/09/10 03:18:25;;;;;;;2.50;2.40;;;15.90;99.90;;;;;;5246720;23;20488;-82
2023/09/10 03:20:55;;;;;;;2.30;2.20;;;15.90;99.90;;;;;;5134163;23;20465;-85
2023/09/10 03:23:22;;;;;;;1.70;1.60;;;15.90;99.90;;;;;;4989188;28;20444;-85
2023/09/10 03:25:49;;;;;;;3.00;2.80;;;16.00;99.90;;;;;;4980486;28;20434;-83
2023/09/10 03:28:16;;;;;;;1.27;1.27;;;15.90;99.90;;;;;;4996063;28;20469;-88
2023/09/10 03:30:43;;;;;;;1.93;1.83;;;15.90;99.90;;;;;;4984937;28;20501;-82
2023/09/10 03:33:10;;;;;;;3.10;2.70;;;16.00;99.90;;;;;;4979948;28;20807;-83
2023/09/10 03:35:37;;;;;;;2.47;2.37;;;15.90;99.90;;;;;;4972886;28;20512;-80
2023/09/10 03:38:04;;;;;;;1.67;1.57;;;15.90;99.90;;;;;;5254218;23;20513;-86
2023/09/10 03:40:31;;;;;;;2.10;2.00;;;15.80;99.90;;;;;;5158979;23;20520;-88
2023/09/10 03:42:58;;;;;;;3.93;3.70;;;15.80;99.90;;;;;;4988005;28;20444;-86
2023/09/10 03:45:25;;;;;;;4.07;1.87;;;15.70;99.90;;;;;;4979005;28;20531;-86
2023/09/10 03:47:52;;;;;;;1.43;1.37;;;15.70;99.90;;;;;;5621192;23;20857;-86
2023/09/10 03:50:21;;;;;;;4.07;3.73;;;15.60;99.90;;;;;;5352906;23;20498;-89
2023/09/10 03:52:48;;;;;;;2.97;2.77;;;15.60;99.90;;;;;;4984179;28;20481;-87
2023/09/10 04:00:33;;;;;;;1.00;1.00;;;15.50;99.90;;;;;;5525027;23;20470;-86
2023/09/10 04:03:00;;;;;;;2.97;2.80;;;15.60;99.90;;;;;;5843894;23;20429;-90
2023/09/10 04:08:08;;;;;;;2.20;2.10;;;15.60;99.90;;;;;;5901883;23;20451;-85
2023/09/10 04:10:35;;;;;;;2.03;1.93;;;15.60;99.90;;;;;;5696255;23;20438;-87
2023/09/10 04:18:27;;;;;;;2.60;2.40;;;15.50;99.90;;;;;;5595667;23;20455;-85
2023/09/10 04:20:54;;;;;;;3.30;2.53;;;15.60;99.90;;;;;;4974817;28;20404;-86
2023/09/10 04:23:21;;;;;;;2.40;2.23;;;15.50;99.90;;;;;;4990373;28;20499;-86
2023/09/10 04:25:50;;;;;;;1.70;1.60;;;15.40;99.90;;;;;;5712395;23;20494;-83
2023/09/10 04:36:20;;;;;;;1.10;1.10;;;15.30;99.90;;;;;;5123435;23;20272;-85
2023/09/10 04:38:47;;;;;;;3.60;3.30;;;15.30;99.90;;;;;;5244312;23;20513;-84
2023/09/10 04:41:14;;;;;;;3.13;2.93;;;15.30;99.90;;;;;;5040430;28;20449;-85
2023/09/10 04:43:44;;;;;;;3.63;3.43;;;15.20;99.90;;;;;;5024531;28;20482;-84
2023/09/10 04:46:10;;;;;;;2.33;2.23;;;15.40;99.90;;;;;;5028711;28;20435;-84
2023/09/10 04:48:38;;;;;;;2.00;1.90;;;15.50;99.90;;;;;;5021477;28;20630;-88
2023/09/10 04:51:05;;;;;;;2.10;2.00;;;15.40;99.90;;;;;;5031042;28;20479;-83
2023/09/10 04:53:35;;;;;;;4.13;3.83;;;15.50;99.90;;;;;;5106743;23;20481;-86
2023/09/10 04:56:02;;;;;;;1.57;1.47;;;15.50;99.90;;;;;;4977233;28;20433;-86
2023/09/10 04:58:31;;;;;;;1.47;1.40;;;15.50;99.90;;;;;;5201264;23;20933;-88
2023/09/10 05:19:47;;;;;;;2.13;2.03;;;16.20;99.90;;;;;;5945626;23;20946;-86
2023/09/10 05:32:53;;;;;;;0.80;0.80;;;16.50;99.90;;;;;;5118138;27;20592;-86
2023/09/10 05:35:20;;;;;;;4.10;3.70;;;17.20;99.90;;;;;;5106115;28;20475;-87
2023/09/10 05:37:48;;;;;;;6.83;2.33;;;17.30;99.90;;;;;;5115587;28;20444;-86
2023/09/10 05:40:15;;;;;;;2.13;2.03;;;17.50;99.90;;;;;;5123022;28;20440;-86
2023/09/10 05:42:43;;;;;;;2.73;2.63;;;17.70;99.90;;;;;;5126068;28;20447;-90
2023/09/10 05:45:12;;;;;;;0.83;0.83;;;17.70;99.90;;;;;;5119848;28;20403;-87
2023/09/10 05:47:41;;;;;;;2.60;2.40;;;17.90;99.90;;;;;;5113376;28;20480;-88
2023/09/10 05:50:12;;;;;;;1.80;1.70;;;18.00;99.90;;;;;;5118211;28;20449;-87
2023/09/10 05:52:39;;;;;;;2.33;2.23;;;18.20;99.90;;;;;;5125099;23;20490;-85
2023/09/10 05:55:06;;;;;;;2.10;2.00;;;18.50;99.90;;;;;;5053400;28;21008;-82
2023/09/10 05:57:36;;;;;;;2.40;2.30;;;18.40;99.90;;;;;;5050580;28;20483;-86
2023/09/10 06:00:04;;;;;;;2.13;2.03;;;18.60;99.90;;;;;;5048700;28;20473;-88
2023/09/10 06:02:31;;;;;;;2.23;2.13;;;18.90;99.90;;;;;;5057475;28;20476;-86
2023/09/10 06:04:58;;;;;;;3.37;3.17;;;19.00;99.90;;;;;;5410863;23;20872;-87
2023/09/10 06:07:26;;;;;;;2.17;2.07;;;19.20;99.90;;;;;;5041453;28;20423;-88
2023/09/10 06:09:53;;;;;;;2.10;2.00;;;19.30;99.90;;;;;;5038556;28;20485;-87
2023/09/10 06:17:43;;;;;;;1.23;1.13;;;19.70;99.90;;;;;;5077148;23;20454;-87
2023/09/10 06:22:53;;;;;;;1.43;1.33;;;20.00;99.90;;;;;;5760362;23;20456;-90
2023/09/10 06:25:20;;;;;;;1.00;1.00;;;19.90;99.90;;;;;;5494149;23;20425;-86
2023/09/10 06:27:47;;;;;;;3.30;3.10;;;20.00;99.90;;;;;;5675328;23;20664;-85
2023/09/10 06:32:56;;;;;;;2.63;2.53;;;20.70;99.90;;;;;;5398850;23;20451;-85
2023/09/10 07:02:45;;;;;;;3.23;2.97;;;24.90;99.90;;;;;;5475550;23;20481;-83
2023/09/10 07:05:12;;;;;;;1.63;1.53;;;26.10;99.90;;;;;;5086243;23;20436;-86
2023/09/10 07:07:39;;;;;;;1.93;1.83;;;26.60;99.60;;;;;;4970255;28;20438;-88
2023/09/10 07:15:13;;;;;;;2.37;2.23;;;27.50;95.80;;;;;;6007239;23;20402;-84
2023/09/10 07:17:40;;;;;;;1.77;1.67;;;28.00;95.40;;;;;;5795706;23;20473;-83
2023/09/10 07:25:29;;;;;;;1.63;1.53;;;29.60;90.80;;;;;;5214314;23;20468;-86
2023/09/10 07:44:02;;;;;;;1.83;1.73;;;31.90;73.60;;;;;;5946367;23;20415;-90
2023/09/10 07:57:16;;;;;;;1.10;1.10;;;33.20;67.50;;;;;;4974400;23;20504;-87
2023/09/10 07:59:44;;;;;;;2.60;2.40;;;33.20;67.10;;;;;;4971096;28;20457;-88
2023/09/10 08:02:12;;;;;;;1.30;1.27;;;33.90;65.40;;;;;;4974863;28;20505;-88
2023/09/10 08:04:43;;;;;;;1.20;1.20;;;33.10;66.10;;;;;;5557916;23;20544;-88
2023/09/10 08:15:16;;;;;;;1.37;1.27;;;33.90;64.10;;;;;;5482804;23;20663;-86
2023/09/10 08:41:45;;;;;;;1.73;1.63;;;33.50;61.10;;;;;;5032326;23;20459;-82
2023/09/10 08:44:26;;;;;;;3.27;3.07;;;33.60;61.60;;;;;;5314658;23;20507;-84
2023/09/10 08:46:58;;;;;;;1.57;1.47;;;34.40;59.80;;;;;;5183266;23;20505;-80
2023/09/10 08:49:27;;;;;;;1.60;1.53;;;34.30;60.00;;;;;;5138595;23;20492;-82
2023/09/10 08:51:56;;;;;;;1.50;1.50;;;34.10;59.20;;;;;;4981783;28;20587;-85
2023/09/10 08:54:23;;;;;;;2.70;2.50;;;33.50;60.20;;;;;;4988456;28;20511;-86
2023/09/10 08:56:51;;;;;;;2.17;2.07;;;34.20;60.80;;;;;;4984438;28;20488;-82
2023/09/10 08:59:19;;;;;;;21.57;2.40;;;34.60;59.60;;;;;;4977485;28;20653;-85
2023/09/10 09:04:23;;;;;;;1.87;1.77;;;34.10;61.00;;;;;;5070674;23;20727;-86
2023/09/10 09:06:53;;;;;;;1.97;1.87;;;34.60;59.90;;;;;;4962938;29;20462;-85
2023/09/10 09:09:24;;;;;;;1.93;1.83;;;34.20;60.30;;;;;;4964613;29;20519;-85
2023/09/10 09:11:53;;;;;;;1.60;1.50;;;34.40;59.90;;;;;;4959673;29;20481;-88
2023/09/10 09:14:22;;;;;;;2.10;1.97;;;34.50;57.50;;;;;;4963836;29;20511;-82
2023/09/10 09:16:52;;;;;;;1.10;1.10;;;34.30;58.10;;;;;;4950849;29;20455;-88
2023/09/10 09:19:22;;;;;;;1.80;1.70;;;33.80;57.70;;;;;;4960300;29;20460;-88
2023/09/10 09:21:50;;;;;;;2.87;2.70;;;33.60;58.90;;;;;;4952774;29;20710;-85
2023/09/10 09:24:17;;;;;;;1.30;1.30;;;33.70;58.20;;;;;;4956912;28;20489;-84
2023/09/10 09:26:45;;;;;;;1.50;1.40;;;33.40;58.30;;;;;;5067742;23;20539;-85
2023/09/10 09:29:12;;;;;;;1.83;1.73;;;33.40;58.60;;;;;;4967062;28;20548;-80
2023/09/10 09:31:39;;;;;;;1.97;1.87;;;32.90;59.70;;;;;;4965084;28;20540;-82
2023/09/10 09:34:06;;;;;;;2.30;2.20;;;32.60;61.10;;;;;;4964614;28;20504;-84
2023/09/10 09:36:36;;;;;;;1.17;1.17;;;32.40;61.20;;;;;;4969020;28;20412;-83
2023/09/10 09:39:07;;;;;;;1.73;1.63;;;32.60;60.20;;;;;;4965740;28;20516;-82
2023/09/10 09:41:36;;;;;;;1.67;1.57;;;32.10;61.60;;;;;;4961445;28;20465;-86
2023/09/10 09:52:07;;;;;;;1.83;1.73;;;31.60;60.40;;;;;;5394056;23;20509;-84
2023/09/10 09:54:34;;;;;;;2.50;2.13;;;31.20;61.80;;;;;;4965332;28;20446;-88
2023/09/10 09:57:03;;;;;;;1.70;1.60;;;31.20;62.00;;;;;;4968392;28;20461;-85
2023/09/10 09:59:37;;;;;;;0.90;0.90;;;31.20;63.60;;;;;;4962594;28;20417;-85
2023/09/10 10:02:04;;;;;;;1.77;1.63;;;31.10;61.70;;;;;;4962710;28;20456;-83
2023/09/10 10:04:32;;;;;;;1.77;1.63;;;30.90;61.80;;;;;;4959134;28;20473;-84
2023/09/10 10:07:01;;;;;;;0.90;0.90;;;30.50;62.30;;;;;;5125570;23;20509;-85
2023/09/10 10:09:46;;;;;;;1.57;1.47;;;30.70;61.80;;;;;;4956659;28;20453;-87
2023/09/10 10:12:16;;;;;;;1.57;1.40;;;30.50;59.40;;;;;;4960366;28;20567;-82
2023/09/10 10:14:44;;;;;;;1.70;1.60;;;30.50;58.70;;;;;;5118832;23;20483;-88
2023/09/10 10:17:12;;;;;;;2.13;1.93;;;30.60;60.00;;;;;;4969075;28;20442;-85
2023/09/10 10:19:42;;;;;;;1.10;1.10;;;30.60;60.70;;;;;;5071792;23;20779;-85
2023/09/10 10:24:39;;;;;;;1.00;1.00;;;30.80;59.80;;;;;;4965397;28;20470;-86
2023/09/10 10:27:07;;;;;;;1.00;1.00;;;30.60;61.00;;;;;;4972358;28;20455;-84
2023/09/10 10:29:35;;;;;;;1.33;1.33;;;30.70;61.50;;;;;;4962774;28;20427;-84
2023/09/10 10:32:13;;;;;;;0.90;0.90;;;30.60;57.60;;;;;;4961176;29;20493;-83
2023/09/10 10:34:56;;;;;;;2.13;2.03;;;30.50;58.60;;;;;;4971239;28;20413;-84
2023/09/10 10:40:23;;;;;;;1.57;1.47;;;30.60;59.20;;;;;;5119514;23;20541;-83
2023/09/10 10:43:12;;;;;;;1.87;1.77;;;30.60;59.60;;;;;;4955721;28;20425;-85
2023/09/10 10:48:23;;;;;;;1.23;1.23;;;30.50;59.10;;;;;;5599418;23;20462;-81
2023/09/10 10:50:53;;;;;;;2.17;2.00;;;30.40;58.40;;;;;;5383275;23;21899;-81
2023/09/10 10:53:23;;;;;;;1.23;1.23;;;30.40;58.70;;;;;;5164607;23;20467;-86
2023/09/10 10:55:53;;;;;;;1.10;1.10;;;30.30;59.90;;;;;;4958698;28;20421;-88
2023/09/10 10:58:25;;;;;;;1.37;1.37;;;30.40;59.30;;;;;;4954430;28;20555;-87
2023/09/10 11:03:28;;;;;;;0.90;0.90;;;30.50;58.70;;;;;;5439623;23;20508;-84
2023/09/10 11:05:57;;;;;;;1.40;1.30;;;30.70;57.90;;;;;;4972893;28;20448;-86
2023/09/10 11:08:29;;;;;;;1.47;1.37;;;30.50;56.60;;;;;;4963465;28;20416;-86
2023/09/10 11:10:57;;;;;;;2.20;2.10;;;30.50;56.50;;;;;;4968963;28;20412;-86
2023/09/10 11:13:24;;;;;;;1.00;1.00;;;30.30;57.60;;;;;;4966498;28;20505;-84
2023/09/10 11:16:04;;;;;;;1.57;1.47;;;30.50;57.40;;;;;;4970426;28;20432;-85
2023/09/10 11:18:36;;;;;;;0.93;0.93;;;30.40;57.60;;;;;;4973252;28;20442;-86
2023/09/10 11:21:05;;;;;;;1.10;1.10;;;30.30;57.90;;;;;;4964628;28;20440;-82
2023/09/10 11:23:34;;;;;;;1.10;1.10;;;30.00;58.70;;;;;;4964536;28;20546;-84
2023/09/10 11:26:13;;;;;;;1.60;1.50;;;29.60;59.20;;;;;;5369123;23;20431;-84
2023/09/10 11:28:47;;;;;;;1.00;1.00;;;29.60;58.70;;;;;;5200546;23;20492;-85
2023/09/10 11:31:33;;;;;;;0.90;0.90;;;29.70;57.50;;;;;;5485030;23;20546;-83
2023/09/10 11:44:33;;;;;;;1.30;1.20;;;30.20;55.60;;;;;;5112353;23;20514;-85
2023/09/10 11:47:00;;;;;;;1.70;1.60;;;30.20;55.80;;;;;;4974801;28;20441;-81
2023/09/10 11:49:27;;;;;;;2.07;1.90;;;30.20;56.80;;;;;;5323961;23;20516;-79
2023/09/10 11:51:56;;;;;;;2.20;2.10;;;30.40;57.10;;;;;;4964924;28;20540;-79
2023/09/10 11:54:24;;;;;;;0.90;0.90;;;30.40;55.80;;;;;;4959849;28;20429;-84
2023/09/10 11:56:57;;;;;;;1.60;1.50;;;30.10;56.80;;;;;;4958551;29;20518;-84
2023/09/10 11:59:26;;;;;;;1.10;1.10;;;30.10;56.40;;;;;;4943924;29;20456;-85
2023/09/10 12:01:55;;;;;;;1.60;1.50;;;30.20;57.10;;;;;;4961263;28;20405;-84
2023/09/10 12:04:30;;;;;;;1.30;1.30;;;30.40;57.00;;;;;;4972905;29;20430;-83
2023/09/10 12:06:57;;;;;;;0.87;0.87;;;30.40;57.30;;;;;;4955651;29;20693;-81
2023/09/10 12:09:31;;;;;;;2.10;1.93;;;30.20;55.60;;;;;;4976129;28;20465;-82
2023/09/10 12:12:09;;;;;;;1.33;1.27;;;30.30;56.30;;;;;;4977023;28;20473;-81
2023/09/10 12:14:37;;;;;;;1.30;1.30;;;30.40;55.80;;;;;;4968980;28;20435;-82
2023/09/10 12:17:04;;;;;;;1.63;1.53;;;30.30;56.70;;;;;;4962299;28;20444;-84
2023/09/10 12:19:35;;;;;;;1.00;1.00;;;30.40;57.10;;;;;;4954668;28;20460;-84
2023/09/10 12:22:09;;;;;;;1.10;1.10;;;30.50;57.30;;;;;;4954650;28;20432;-83
2023/09/10 12:24:39;;;;;;;2.73;2.60;;;30.50;56.70;;;;;;4958825;28;20629;-84
2023/09/10 12:27:06;;;;;;;0.90;0.90;;;30.50;57.40;;;;;;5073752;23;20541;31
2023/09/10 12:29:36;;;;;;;0.90;0.90;;;30.40;55.30;;;;;;5210223;23;20457;-84
2023/09/10 12:32:05;;;;;;;1.03;1.03;;;30.30;56.00;;;;;;4959177;23;20509;-83
2023/09/10 12:34:33;;;;;;;1.43;1.10;;;30.20;55.50;;;;;;5271351;23;20489;-80
2023/09/10 12:39:35;;;;;;;1.17;1.03;;;30.10;56.50;;;;;;4956582;28;20461;-82
2023/09/10 12:44:39;;;;;;;1.03;1.03;;;30.00;56.80;;;;;;5322438;23;20515;-87
2023/09/10 12:47:12;;;;;;;2.23;2.03;;;30.10;56.70;;;;;;5197336;23;20650;-86
2023/09/10 12:49:43;;;;;;;2.30;1.10;;;30.20;56.40;;;;;;4945529;29;20439;-85
2023/09/10 12:52:10;;;;;;;1.53;1.43;;;30.10;56.60;;;;;;4943131;29;20464;-87
2023/09/10 12:54:39;;;;;;;2.03;1.90;;;30.10;56.40;;;;;;4945335;29;20483;-85
2023/09/10 12:57:11;;;;;;;1.10;1.10;;;30.10;55.80;;;;;;4941334;29;20493;-87
2023/09/10 12:59:39;;;;;;;2.67;2.50;;;30.00;56.30;;;;;;4944632;29;20538;-89
2023/09/10 13:02:11;;;;;;;1.00;1.00;;;30.00;56.20;;;;;;4946607;28;20437;-86
2023/09/10 13:04:38;;;;;;;1.97;1.87;;;30.10;57.50;;;;;;4945069;29;20462;-89
2023/09/10 13:07:06;;;;;;;1.90;1.80;;;30.20;57.00;;;;;;4941489;29;20417;-86
2023/09/10 13:09:36;;;;;;;1.03;1.03;;;30.10;57.40;;;;;;5163601;23;20997;-86
2023/09/10 13:12:06;;;;;;;1.40;1.40;;;30.10;57.70;;;;;;4961603;29;20528;-85
2023/09/10 13:14:39;;;;;;;2.07;1.93;;;30.10;55.60;;;;;;4974353;28;20412;-85
2023/09/10 13:17:09;;;;;;;1.30;1.30;;;30.10;56.20;;;;;;4975168;28;20409;-85
2023/09/10 13:19:38;;;;;;;1.90;1.80;;;30.10;56.40;;;;;;4970307;28;20454;-87
2023/09/10 13:22:07;;;;;;;1.40;1.30;;;30.20;56.70;;;;;;5240183;23;20704;-86
2023/09/10 13:24:34;;;;;;;0.90;0.90;;;30.00;56.70;;;;;;4961781;28;20487;-88
2023/09/10 13:32:36;;;;;;;1.93;1.83;;;30.10;56.00;;;;;;5289261;23;20497;-82
2023/09/10 13:40:21;;;;;;;1.40;1.27;;;30.00;56.40;;;;;;5489936;23;20500;-86
2023/09/10 13:42:49;;;;;;;1.20;1.20;;;30.00;55.60;;;;;;5654942;23;20501;-84
2023/09/10 13:45:19;;;;;;;1.50;1.40;;;30.00;56.80;;;;;;4970040;28;20457;-85
2023/09/10 13:47:46;;;;;;;1.77;1.67;;;29.70;57.50;;;;;;5033700;23;20472;-84
2023/09/10 13:50:13;;;;;;;2.30;2.10;;;29.70;58.80;;;;;;5117299;23;20498;-86
2023/09/10 13:52:42;;;;;;;1.53;1.43;;;29.60;57.90;;;;;;4945340;28;20449;-89
2023/09/10 14:03:16;;;;;;;1.03;1.03;;;29.50;59.00;;;;;;5299136;23;20502;-88
2023/09/10 14:05:47;;;;;;;1.57;1.47;;;29.60;58.70;;;;;;5621713;23;20485;-84
2023/09/10 14:13:26;;;;;;;1.60;1.50;;;29.50;58.80;;;;;;5435021;23;20583;-87
2023/09/10 14:15:58;;;;;;;0.87;0.87;;;29.40;59.10;;;;;;4968437;28;20458;-87
2023/09/10 14:18:30;;;;;;;1.30;1.30;;;29.20;59.30;;;;;;5059803;23;20512;-87
2023/09/10 14:26:12;;;;;;;1.10;1.10;;;29.30;59.30;;;;;;5232645;23;20510;-88
2023/09/10 14:33:59;;;;;;;1.00;1.00;;;29.30;59.70;;;;;;5241567;23;20499;-88
2023/09/10 14:39:14;;;;;;;1.77;1.67;;;29.20;59.30;;;;;;5945495;23;20392;-82
2023/09/10 14:44:18;;;;;;;0.90;0.90;;;29.10;60.10;;;;;;5203531;23;20456;-80
2023/09/10 14:46:45;;;;;;;1.57;1.47;;;29.10;59.50;;;;;;5232989;23;20574;-86
2023/09/10 15:08:00;;;;;;;1.17;1.07;;;28.70;60.80;;;;;;5685780;23;21840;-85
2023/09/10 15:23:51;;;;;;;1.83;1.73;;;28.60;62.30;;;;;;5122210;23;20541;-85
2023/09/10 15:31:39;;;;;;;1.17;1.17;;;28.50;63.50;;;;;;5897411;23;21889;-87
2023/09/10 15:34:07;;;;;;;1.07;1.07;;;28.50;61.50;;;;;;5265334;23;20468;-84
2023/09/10 15:44:46;;;;;;;1.60;1.50;;;28.30;62.70;;;;;;5172345;23;20478;-87
2023/09/10 16:01:10;;;;;;;0.97;0.97;;;28.10;62.40;;;;;;5934991;23;20582;-89
2023/09/10 16:06:12;;;;;;;1.60;1.50;;;27.90;63.60;;;;;;5462393;23;21589;-83
2023/09/10 16:57:20;;;;;;;1.20;1.17;;;26.00;70.70;;;;;;5826738;23;20552;-90
2023/09/10 18:29:02;;;;;;;1.20;1.20;;;22.20;99.90;;;;;;5620670;23;21355;-84
2023/09/10 18:34:06;;;;;;;1.27;1.17;;;22.10;99.90;;;;;;5923429;23;20854;-86
2023/09/10 19:09:00;;;;;;;2.60;2.50;;;21.40;99.90;;;;;;5135732;23;20485;-85
2023/09/10 19:11:29;;;;;;;2.37;2.27;;;21.50;99.90;;;;;;4971470;28;20404;-84
2023/09/10 19:14:00;;;;;;;1.93;1.83;;;21.30;99.90;;;;;;4974337;28;20493;-84
2023/09/10 19:16:28;;;;;;;1.37;1.27;;;21.30;99.90;;;;;;4969352;28;20822;-86
2023/09/10 19:18:58;;;;;;;4.00;3.70;;;21.20;99.90;;;;;;4971187;28;20480;-89
2023/09/10 19:21:26;;;;;;;1.20;1.20;;;21.20;99.90;;;;;;4972258;28;20469;-86
2023/09/10 19:23:55;;;;;;;2.47;2.37;;;21.20;99.90;;;;;;5073255;23;20544;-85
2023/09/10 19:34:28;;;;;;;1.53;1.27;;;21.00;99.90;;;;;;5186414;23;20565;-87
2023/09/10 19:36:55;;;;;;;1.27;1.27;;;21.10;99.90;;;;;;4971751;28;20461;-86
2023/09/10 19:41:57;;;;;;;2.60;2.40;;;21.10;99.90;;;;;;5553442;23;20457;-90
2023/09/10 19:57:47;;;;;;;1.10;1.10;;;21.20;99.90;;;;;;5483295;23;20335;-88
2023/09/10 20:00:18;;;;;;;1.20;1.10;;;21.30;99.90;;;;;;4971329;28;20541;-85
2023/09/10 20:02:46;;;;;;;1.30;1.30;;;21.20;99.90;;;;;;4969728;28;20420;-89
2023/09/10 20:05:15;;;;;;;1.83;1.73;;;21.30;99.90;;;;;;4973450;28;20439;-87
2023/09/10 20:13:02;;;;;;;1.97;1.87;;;21.00;99.90;;;;;;5840860;23;20483;-87
2023/09/10 20:28:53;;;;;;;1.87;1.77;;;20.60;99.90;;;;;;5741706;23;21629;-81
2023/09/10 20:31:23;;;;;;;1.73;1.63;;;20.50;99.90;;;;;;4974567;28;20485;-84
2023/09/10 20:39:14;;;;;;;1.10;1.10;;;20.30;99.90;;;;;;5321368;23;20477;-86
2023/09/10 20:41:42;;;;;;;1.07;1.07;;;20.20;99.90;;;;;;4951239;29;20456;-86
2023/09/10 20:44:09;;;;;;;1.47;1.37;;;20.20;99.90;;;;;;4952464;28;20539;-88
2023/09/10 21:00:13;;;;;;;1.77;1.67;;;19.90;99.90;;;;;;5165111;23;20471;-86
2023/09/10 21:02:47;;;;;;;1.20;1.20;;;19.80;99.90;;;;;;5547973;23;20484;-88
2023/09/10 21:15:54;;;;;;;1.03;1.03;;;19.80;99.90;;;;;;6185725;22;1280672;-90
2023/09/10 21:18:22;;;;;;;1.20;1.17;;;19.50;99.90;;;;;;6272449;22;20183;-90
2023/09/10 21:23:30;;;;;;;2.03;1.93;;;19.30;99.90;;;;;;6234689;22;20403;-87
2023/09/10 21:25:57;;;;;;;3.33;3.03;;;19.30;99.90;;;;;;6278896;22;20370;-87
2023/09/10 21:36:30;;;;;;;1.30;1.27;;;19.10;99.90;;;;;;6201982;22;20446;-85
2023/09/10 21:38:57;;;;;;;4.23;3.90;;;19.00;99.90;;;;;;6227199;22;20433;-87
2023/09/10 21:41:24;;;;;;;2.67;2.00;;;19.00;99.90;;;;;;6209401;23;21062;-87
2023/09/10 21:43:50;;;;;;;1.43;1.37;;;19.00;99.90;;;;;;6236262;23;20975;-89
2023/09/10 21:46:18;;;;;;;3.87;3.57;;;18.80;99.90;;;;;;6235355;23;20428;-88
2023/09/10 21:48:46;;;;;;;2.43;2.23;;;18.80;99.90;;;;;;6212242;23;20390;-87
2023/09/10 21:51:14;;;;;;;1.50;1.40;;;18.80;99.90;;;;;;6242452;22;20508;-86
2023/09/10 21:53:43;;;;;;;1.60;1.50;;;18.60;99.90;;;;;;6223633;23;20454;-87
2023/09/10 21:58:53;;;;;;;1.40;1.30;;;18.70;99.90;;;;;;6235637;22;20408;-88
2023/09/10 22:01:28;;;;;;;1.10;1.10;;;18.60;99.90;;;;;;6228445;22;20499;-86
2023/09/10 22:03:55;;;;;;;1.40;1.33;;;18.60;99.90;;;;;;6224426;23;20445;-86
2023/09/10 22:06:37;;;;;;;1.67;1.57;;;18.50;99.90;;;;;;6208326;22;20483;-86
2023/09/10 22:09:05;;;;;;;2.03;1.93;;;18.60;99.90;;;;;;6248273;23;20461;-89
2023/09/10 22:11:35;;;;;;;1.80;1.73;;;18.60;99.90;;;;;;6249399;23;20407;-85
2023/09/10 22:14:06;;;;;;;1.90;1.80;;;18.40;99.90;;;;;;6248666;23;20420;-87
2023/09/10 22:16:35;;;;;;;4.43;0.97;;;18.40;99.90;;;;;;6218957;23;20385;-86
2023/09/10 22:19:02;;;;;;;1.80;1.70;;;18.30;99.90;;;;;;6182879;22;20464;-82
2023/09/10 22:21:29;;;;;;;1.83;1.73;;;18.30;99.90;;;;;;6237857;23;20519;-84
2023/09/10 22:23:56;;;;;;;2.00;1.80;;;18.30;99.90;;;;;;6241293;23;20444;-89
2023/09/10 22:26:23;;;;;;;1.37;1.27;;;18.30;99.90;;;;;;6266705;23;20511;-87
2023/09/10 22:31:34;;;;;;;1.10;1.10;;;18.20;99.90;;;;;;6210319;22;20437;-88
2023/09/10 22:34:01;;;;;;;1.80;1.73;;;18.10;99.90;;;;;;6238169;23;20390;-83
2023/09/10 22:36:28;;;;;;;1.57;1.47;;;17.90;99.90;;;;;;6227765;23;20398;-90
2023/09/10 22:39:07;;;;;;;1.47;1.37;;;18.10;99.90;;;;;;6222201;23;20488;-86
2023/09/10 22:41:36;;;;;;;0.90;0.90;;;18.10;99.90;;;;;;6197488;23;20386;-86
2023/09/10 22:44:06;;;;;;;1.30;1.13;;;18.10;99.90;;;;;;6228577;23;20439;-87
2023/09/10 22:46:33;;;;;;;1.30;1.30;;;18.10;99.90;;;;;;6228870;23;20414;-88
2023/09/10 22:49:04;;;;;;;3.50;3.30;;;18.00;99.90;;;;;;6224016;23;20730;-86
2023/09/10 22:54:13;;;;;;;2.50;2.40;;;18.00;99.90;;;;;;6150174;22;20521;-90
2023/09/10 22:56:41;;;;;;;2.23;2.13;;;18.10;99.90;;;;;;6197653;23;20481;-89
2023/09/10 22:59:08;;;;;;;0.97;0.93;;;18.00;99.90;;;;;;6233036;23;20441;-85
2023/09/10 23:01:36;;;;;;;0.83;0.83;;;17.90;99.90;;;;;;6233333;23;20417;-89
2023/09/10 23:04:03;;;;;;;1.10;1.10;;;17.80;99.90;;;;;;6231696;23;20473;-88
2023/09/10 23:14:30;;;;;;;2.30;2.20;;;17.70;99.90;;;;;;6194827;22;20545;-88
2023/09/10 23:25:01;;;;;;;2.33;1.23;;;17.60;99.90;;;;;;6215785;22;20453;-89
2023/09/10 23:27:31;;;;;;;1.33;1.23;;;17.60;99.90;;;;;;6154205;22;20421;-87
2023/09/10 23:30:07;;;;;;;2.70;2.50;;;17.70;99.90;;;;;;6177396;23;20418;-88
2023/09/10 23:32:36;;;;;;;1.00;1.00;;;17.50;99.90;;;;;;6179107;23;20421;-88